createdAt,value
2019-03-23T00:00:34.937Z,8.97
2019-03-23T00:03:04.855Z,8.60
2019-03-23T00:05:34.512Z,8.53
2019-03-23T00:08:04.383Z,9.03
2019-03-23T00:10:34.051Z,8.00
2019-03-23T00:13:03.729Z,8.20
2019-03-23T00:15:33.387Z,8.07
2019-03-23T00:18:03.096Z,7.47
2019-03-23T00:20:32.776Z,7.40
2019-03-23T00:23:02.470Z,7.37
2019-03-23T00:25:32.084Z,7.40
2019-03-23T00:28:01.762Z,7.60
2019-03-23T00:30:31.437Z,8.73
2019-03-23T00:33:01.151Z,7.70
2019-03-23T00:35:30.845Z,8.17
2019-03-23T00:38:00.588Z,8.17
2019-03-23T00:40:30.267Z,7.07
2019-03-23T00:43:00.021Z,8.07
2019-03-23T00:45:29.706Z,8.87
2019-03-23T00:47:59.375Z,8.93
2019-03-23T00:50:29.061Z,8.57
2019-03-23T00:52:58.755Z,8.57
2019-03-23T00:55:28.448Z,9.30
2019-03-23T00:57:58.173Z,7.97
2019-03-23T01:00:27.853Z,8.10
2019-03-23T01:02:57.565Z,8.87
2019-03-23T01:05:27.234Z,8.07
2019-03-23T01:07:56.929Z,8.40
2019-03-23T01:10:26.623Z,9.33
2019-03-23T01:12:56.351Z,8.80
2019-03-23T01:15:26.093Z,9.17
2019-03-23T01:17:55.828Z,8.37
2019-03-23T01:20:25.481Z,9.10
2019-03-23T01:22:55.183Z,8.87
2019-03-23T01:25:24.840Z,9.23
2019-03-23T01:27:54.569Z,8.23
2019-03-23T01:30:24.336Z,9.43
2019-03-23T01:32:54.014Z,10.07
2019-03-23T01:35:23.741Z,8.80
2019-03-23T01:37:53.452Z,8.47
2019-03-23T01:40:23.174Z,7.87
2019-03-23T01:42:52.849Z,9.00
2019-03-23T01:45:22.559Z,9.10
2019-03-23T01:47:52.316Z,7.97
2019-03-23T01:50:22.028Z,9.70
2019-03-23T01:52:51.703Z,8.70
2019-03-23T01:55:21.444Z,10.53
2019-03-23T01:57:51.101Z,9.03
2019-03-23T02:00:20.795Z,8.97
2019-03-23T02:02:50.456Z,8.17
2019-03-23T02:05:20.236Z,10.47
2019-03-23T02:07:49.904Z,9.20
2019-03-23T02:10:19.601Z,9.23
2019-03-23T02:12:49.346Z,9.70
2019-03-23T02:15:19.109Z,8.70
2019-03-23T02:17:48.798Z,9.63
2019-03-23T02:20:18.462Z,8.70
2019-03-23T02:22:48.144Z,9.03
2019-03-23T02:25:17.841Z,9.50
2019-03-23T02:27:47.547Z,10.97
2019-03-23T02:30:17.248Z,10.03
2019-03-23T02:32:46.932Z,10.57
2019-03-23T02:35:16.627Z,11.10
2019-03-23T02:37:46.379Z,9.10
2019-03-23T02:40:16.102Z,9.87
2019-03-23T02:42:45.783Z,9.53
2019-03-23T02:45:15.486Z,10.40
2019-03-23T02:47:45.177Z,11.53
2019-03-23T02:50:14.875Z,11.77
2019-03-23T02:52:44.558Z,11.43
2019-03-23T02:55:14.323Z,11.13
2019-03-23T02:57:44.003Z,10.83
2019-03-23T03:00:14.188Z,10.13
2019-03-23T03:02:43.953Z,11.27
2019-03-23T03:05:13.651Z,12.37
2019-03-23T03:07:44.059Z,10.67
2019-03-23T03:10:17.835Z,11.40
2019-03-23T03:12:47.525Z,12.03
2019-03-23T03:15:17.211Z,11.23
2019-03-23T03:17:46.908Z,11.37
2019-03-23T03:20:16.652Z,11.60
2019-03-23T03:22:46.312Z,11.47
2019-03-23T03:25:16.010Z,11.50
2019-03-23T03:27:45.699Z,10.90
2019-03-23T03:30:15.418Z,12.30
2019-03-23T03:32:45.137Z,10.07
2019-03-23T03:35:15.183Z,11.07
2019-03-23T03:37:55.807Z,12.17
2019-03-23T03:40:16.470Z,10.93
2019-03-23T03:42:46.102Z,11.00
2019-03-23T03:45:22.233Z,11.00
2019-03-23T03:47:51.909Z,10.23
2019-03-23T03:50:21.614Z,11.57
2019-03-23T03:52:51.303Z,10.93
2019-03-23T03:55:21.158Z,11.47
2019-03-23T03:57:50.930Z,10.37
2019-03-23T04:00:20.620Z,11.27
2019-03-23T04:02:50.307Z,9.87
2019-03-23T04:05:19.971Z,11.20
2019-03-23T04:07:49.693Z,11.00
2019-03-23T04:10:19.355Z,11.57
2019-03-23T04:12:49.112Z,11.90
2019-03-23T04:15:18.874Z,11.13
2019-03-23T04:17:48.554Z,11.00
2019-03-23T04:20:18.257Z,11.60
2019-03-23T04:22:47.939Z,12.70
2019-03-23T04:25:17.681Z,13.10
2019-03-23T04:27:47.381Z,13.23
2019-03-23T04:30:17.055Z,13.27
2019-03-23T04:32:46.719Z,13.57
2019-03-23T04:35:16.414Z,14.27
2019-03-23T04:37:46.124Z,13.30
2019-03-23T04:40:15.886Z,13.37
2019-03-23T04:42:45.575Z,12.40
2019-03-23T04:45:15.589Z,12.47
2019-03-23T04:47:45.281Z,12.53
2019-03-23T04:50:15.071Z,11.67
2019-03-23T04:52:44.849Z,14.23
2019-03-23T04:55:14.641Z,13.60
2019-03-23T04:57:44.371Z,12.33
2019-03-23T05:00:14.633Z,12.93
2019-03-23T05:02:44.339Z,11.80
2019-03-23T05:05:14.039Z,11.83
2019-03-23T05:07:43.700Z,13.07
2019-03-23T05:10:13.416Z,13.57
2019-03-23T05:12:43.105Z,13.57
2019-03-23T05:15:13.293Z,13.07
2019-03-23T05:17:42.986Z,13.07
2019-03-23T05:20:19.069Z,12.17
2019-03-23T05:22:48.795Z,11.03
2019-03-23T05:25:25.670Z,11.93
2019-03-23T05:27:55.372Z,13.33
2019-03-23T05:30:25.060Z,13.10
2019-03-23T05:32:55.310Z,13.93
2019-03-23T05:35:24.987Z,12.77
2019-03-23T05:37:54.749Z,12.83
2019-03-23T05:40:24.427Z,12.07
2019-03-23T05:42:54.013Z,13.20
2019-03-23T05:45:23.713Z,13.50
2019-03-23T05:47:53.453Z,11.20
2019-03-23T05:50:23.138Z,11.83
2019-03-23T05:52:52.835Z,12.30
2019-03-23T05:55:22.494Z,12.73
2019-03-23T05:57:52.197Z,12.20
2019-03-23T06:00:21.881Z,13.23
2019-03-23T06:02:51.585Z,13.37
2019-03-23T06:05:21.253Z,13.67
2019-03-23T06:07:50.966Z,13.90
2019-03-23T06:10:20.654Z,12.03
2019-03-23T06:12:50.358Z,13.73
2019-03-23T06:15:20.134Z,15.00
2019-03-23T06:17:49.811Z,13.60
2019-03-23T06:20:19.593Z,12.40
2019-03-23T06:22:49.284Z,11.57
2019-03-23T06:25:18.975Z,11.47
2019-03-23T06:27:48.664Z,12.47
2019-03-23T06:30:18.352Z,13.70
2019-03-23T06:32:48.064Z,13.07
2019-03-23T06:35:17.774Z,12.97
2019-03-23T06:37:47.460Z,11.60
2019-03-23T06:40:17.278Z,11.97
2019-03-23T06:42:46.980Z,10.77
2019-03-23T06:45:16.788Z,10.37
2019-03-23T06:47:46.511Z,9.77
2019-03-23T06:50:16.216Z,9.53
2019-03-23T06:52:45.912Z,10.23
2019-03-23T06:55:15.632Z,11.33
2019-03-23T06:57:45.440Z,11.20
2019-03-23T07:00:15.164Z,10.73
2019-03-23T07:02:44.955Z,12.33
2019-03-23T07:05:14.764Z,12.43
2019-03-23T07:07:44.432Z,12.43
2019-03-23T07:10:14.632Z,13.43
2019-03-23T07:12:44.305Z,13.77
2019-03-23T07:15:19.845Z,11.83
2019-03-23T07:17:45.597Z,12.33
2019-03-23T07:20:15.408Z,12.57
2019-03-23T07:22:45.106Z,13.90
2019-03-23T07:25:14.760Z,13.37
2019-03-23T07:27:44.451Z,13.70
2019-03-23T07:30:15.578Z,15.23
2019-03-23T07:32:45.246Z,15.33
2019-03-23T07:35:15.055Z,14.43
2019-03-23T07:37:44.737Z,16.80
2019-03-23T07:40:14.522Z,18.87
2019-03-23T07:42:44.265Z,18.10
2019-03-23T07:45:14.973Z,19.77
2019-03-23T07:47:44.692Z,19.50
2019-03-23T07:50:15.376Z,20.83
2019-03-23T07:52:45.167Z,20.57
2019-03-23T07:55:15.163Z,21.13
2019-03-23T07:57:45.556Z,22.37
2019-03-23T08:00:17.253Z,21.43
2019-03-23T08:02:46.941Z,22.63
2019-03-23T08:05:16.725Z,21.47
2019-03-23T08:07:46.450Z,20.00
2019-03-23T08:10:30.016Z,21.60
2019-03-23T08:12:59.721Z,21.00
2019-03-23T08:15:29.603Z,23.60
2019-03-23T08:17:59.450Z,23.07
2019-03-23T08:20:31.697Z,23.47
2019-03-23T08:23:01.381Z,22.50
2019-03-23T08:25:31.096Z,20.43
2019-03-23T08:28:00.772Z,20.53
2019-03-23T08:30:30.415Z,21.37
2019-03-23T08:33:00.199Z,21.90
2019-03-23T08:35:29.967Z,22.30
2019-03-23T08:37:59.675Z,21.30
2019-03-23T08:40:29.379Z,21.97
2019-03-23T08:42:59.026Z,22.03
2019-03-23T08:45:28.761Z,21.03
2019-03-23T08:47:58.425Z,21.07
2019-03-23T08:50:28.114Z,20.27
2019-03-23T08:52:57.817Z,20.67
2019-03-23T08:55:27.521Z,20.50
2019-03-23T08:57:57.290Z,21.57
2019-03-23T09:00:26.957Z,21.50
2019-03-23T09:02:56.625Z,20.67
2019-03-23T09:05:26.403Z,20.10
2019-03-23T09:07:56.078Z,21.50
2019-03-23T09:10:25.727Z,21.37
2019-03-23T09:12:55.469Z,21.40
2019-03-23T09:15:25.133Z,21.53
2019-03-23T09:17:54.858Z,18.33
2019-03-23T09:20:24.563Z,18.53
2019-03-23T09:22:54.277Z,19.03
2019-03-23T09:25:24.024Z,21.30
2019-03-23T09:27:53.695Z,20.17
2019-03-23T09:30:23.469Z,20.00
2019-03-23T09:32:53.157Z,21.73
2019-03-23T09:35:22.812Z,20.97
2019-03-23T09:37:52.535Z,19.03
2019-03-23T09:40:22.242Z,21.60
2019-03-23T09:42:52.023Z,20.53
2019-03-23T09:45:21.735Z,20.67
2019-03-23T09:47:51.435Z,20.87
2019-03-23T09:50:21.143Z,20.57
2019-03-23T09:52:50.822Z,22.43
2019-03-23T09:55:20.535Z,20.20
2019-03-23T09:57:50.223Z,20.47
2019-03-23T10:00:19.911Z,22.47
2019-03-23T10:02:49.642Z,21.33
2019-03-23T10:05:19.400Z,21.23
2019-03-23T10:07:49.141Z,20.10
2019-03-23T10:10:22.144Z,21.57
2019-03-23T10:12:50.376Z,22.33
2019-03-23T10:15:20.107Z,22.80
2019-03-23T10:17:49.787Z,20.23
2019-03-23T10:20:19.490Z,21.97
2019-03-23T10:22:49.176Z,22.33
2019-03-23T10:25:18.897Z,21.30
2019-03-23T10:27:48.584Z,20.70
2019-03-23T10:30:18.269Z,21.43
2019-03-23T10:32:48.061Z,22.03
2019-03-23T10:35:17.773Z,23.43
2019-03-23T10:37:48.103Z,22.57
2019-03-23T10:40:17.809Z,22.10
2019-03-23T10:42:47.510Z,23.27
2019-03-23T10:45:17.255Z,23.17
2019-03-23T10:47:46.996Z,22.00
2019-03-23T10:50:16.845Z,21.40
2019-03-23T10:52:46.557Z,22.37
2019-03-23T10:55:16.234Z,24.47
2019-03-23T10:57:45.950Z,23.27
2019-03-23T11:00:15.732Z,24.67
2019-03-23T11:02:45.442Z,25.80
2019-03-23T11:05:15.154Z,22.23
2019-03-23T11:07:44.835Z,23.43
2019-03-23T11:10:14.602Z,25.00
2019-03-23T11:12:44.367Z,22.33
2019-03-23T11:15:14.060Z,23.93
2019-03-23T11:17:43.754Z,22.63
2019-03-23T11:20:14.348Z,26.93
2019-03-23T11:22:44.072Z,25.33
2019-03-23T11:25:14.547Z,24.87
2019-03-23T11:27:44.274Z,26.17
2019-03-23T11:30:14.347Z,24.63
2019-03-23T11:32:44.109Z,24.90
2019-03-23T11:35:14.793Z,23.63
2019-03-23T11:37:44.750Z,24.27
2019-03-23T11:40:14.836Z,24.87
2019-03-23T11:42:49.927Z,26.43
2019-03-23T11:45:15.946Z,25.30
2019-03-23T11:47:45.662Z,26.50
2019-03-23T11:50:15.333Z,25.80
2019-03-23T11:52:47.020Z,26.80
2019-03-23T11:55:16.468Z,28.50
2019-03-23T11:57:46.142Z,26.10
2019-03-23T12:00:15.830Z,25.70
2019-03-23T12:02:45.601Z,27.97
2019-03-23T12:05:15.357Z,25.43
2019-03-23T12:07:45.101Z,27.00
2019-03-23T12:10:15.164Z,27.27
2019-03-23T12:12:44.900Z,26.83
2019-03-23T12:15:15.325Z,27.43
2019-03-23T12:17:45.075Z,27.53
2019-03-23T12:20:14.888Z,26.33
2019-03-23T12:22:44.628Z,24.93
2019-03-23T12:25:15.002Z,25.53
2019-03-23T12:27:44.659Z,26.33
2019-03-23T12:30:16.075Z,24.73
2019-03-23T12:32:45.805Z,25.00
2019-03-23T12:35:15.521Z,27.10
2019-03-23T12:37:45.246Z,28.03
2019-03-23T12:40:15.095Z,26.50
2019-03-23T12:42:44.811Z,25.73
2019-03-23T12:45:14.587Z,26.73
2019-03-23T12:47:44.280Z,23.93
2019-03-23T12:50:14.254Z,26.63
2019-03-23T12:52:43.950Z,28.43
2019-03-23T12:55:13.786Z,27.07
2019-03-23T12:57:43.493Z,24.10
2019-03-23T13:00:14.022Z,27.13
2019-03-23T13:02:44.032Z,26.60
2019-03-23T13:05:13.804Z,28.50
2019-03-23T13:07:43.559Z,27.30
2019-03-23T13:10:13.452Z,26.07
2019-03-23T13:12:43.159Z,26.30
2019-03-23T13:15:13.004Z,25.60
2019-03-23T13:17:42.683Z,24.43
2019-03-23T13:20:12.902Z,25.90
2019-03-23T13:22:42.604Z,25.30
2019-03-23T13:25:12.357Z,25.60
2019-03-23T13:27:42.311Z,24.30
2019-03-23T13:30:13.317Z,23.80
2019-03-23T13:32:43.019Z,22.47
2019-03-23T13:35:12.711Z,25.97
2019-03-23T13:37:42.411Z,25.63
2019-03-23T13:40:12.407Z,27.27
2019-03-23T13:42:42.068Z,24.17
2019-03-23T13:45:11.860Z,25.17
2019-03-23T13:47:41.558Z,27.80
2019-03-23T13:50:11.893Z,25.80
2019-03-23T13:52:41.615Z,26.67
2019-03-23T13:55:24.161Z,26.57
2019-03-23T13:57:53.825Z,24.73
2019-03-23T14:00:23.505Z,24.13
2019-03-23T14:02:53.191Z,24.63
2019-03-23T14:05:22.875Z,24.40
2019-03-23T14:07:52.641Z,25.30
2019-03-23T14:10:22.311Z,26.10
2019-03-23T14:12:51.995Z,25.57
2019-03-23T14:15:21.775Z,25.33
2019-03-23T14:17:51.441Z,25.10
2019-03-23T14:20:21.138Z,26.10
2019-03-23T14:22:50.876Z,23.73
2019-03-23T14:25:20.569Z,24.33
2019-03-23T14:27:50.281Z,23.60
2019-03-23T14:30:19.943Z,24.13
2019-03-23T14:32:49.632Z,24.43
2019-03-23T14:35:19.312Z,22.43
2019-03-23T14:37:48.993Z,25.03
2019-03-23T14:40:18.660Z,23.97
2019-03-23T14:42:48.340Z,24.87
2019-03-23T14:45:18.102Z,26.73
2019-03-23T14:47:47.754Z,25.23
2019-03-23T14:50:17.440Z,24.13
2019-03-23T14:52:47.221Z,24.57
2019-03-23T14:55:16.918Z,23.47
2019-03-23T14:57:46.604Z,23.00
2019-03-23T15:00:25.300Z,23.60
2019-03-23T15:02:54.937Z,22.20
2019-03-23T15:05:24.605Z,23.47
2019-03-23T15:07:54.388Z,22.40
2019-03-23T15:10:24.040Z,21.53
2019-03-23T15:12:53.754Z,21.17
2019-03-23T15:15:23.420Z,20.27
2019-03-23T15:17:53.088Z,21.77
2019-03-23T15:20:22.798Z,20.90
2019-03-23T15:22:52.471Z,18.40
2019-03-23T15:25:22.199Z,21.43
2019-03-23T15:27:51.960Z,22.37
2019-03-23T15:30:21.682Z,22.87
2019-03-23T15:32:51.367Z,22.90
2019-03-23T15:35:21.042Z,23.20
2019-03-23T15:37:50.865Z,24.70
2019-03-23T15:40:20.560Z,24.37
2019-03-23T15:42:50.329Z,26.57
2019-03-23T15:45:20.059Z,27.60
2019-03-23T15:47:49.768Z,28.37
2019-03-23T15:50:19.455Z,27.63
2019-03-23T15:52:49.162Z,25.77
2019-03-23T15:55:18.817Z,26.07
2019-03-23T15:57:48.492Z,23.57
2019-03-23T16:00:18.248Z,23.40
2019-03-23T16:02:47.984Z,25.87
2019-03-23T16:05:17.688Z,24.57
2019-03-23T16:07:47.378Z,21.47
2019-03-23T16:10:17.076Z,24.53
2019-03-23T16:12:46.759Z,24.97
2019-03-23T16:15:16.468Z,25.67
2019-03-23T16:17:46.173Z,23.50
2019-03-23T16:20:15.896Z,21.13
2019-03-23T16:22:45.570Z,20.03
2019-03-23T16:25:15.244Z,22.47
2019-03-23T16:27:44.916Z,22.30
2019-03-23T16:30:16.193Z,20.80
2019-03-23T16:32:45.901Z,21.53
2019-03-23T16:35:15.580Z,22.33
2019-03-23T16:37:45.239Z,22.23
2019-03-23T16:40:15.540Z,21.37
2019-03-23T16:42:45.849Z,16.67
2019-03-23T16:45:15.756Z,21.60
2019-03-23T16:47:45.448Z,21.47
2019-03-23T16:50:15.120Z,22.07
2019-03-23T16:52:44.886Z,20.47
2019-03-23T16:55:14.554Z,20.47
2019-03-23T16:57:44.279Z,20.77
2019-03-23T17:00:15.774Z,30.77
2019-03-23T17:02:45.542Z,29.93
2019-03-23T17:05:15.247Z,31.53
2019-03-23T17:07:44.924Z,33.10
2019-03-23T17:10:15.138Z,32.13
2019-03-23T17:12:54.953Z,28.70
2019-03-23T17:15:16.563Z,30.10
2019-03-23T17:17:46.268Z,30.63
2019-03-23T17:20:15.961Z,30.20
2019-03-23T17:22:45.740Z,29.10
2019-03-23T17:25:15.472Z,31.97
2019-03-23T17:27:45.159Z,31.13
2019-03-23T17:30:14.993Z,29.27
2019-03-23T17:32:44.709Z,30.20
2019-03-23T17:35:14.415Z,30.50
2019-03-23T17:37:44.058Z,30.77
2019-03-23T17:40:13.789Z,29.20
2019-03-23T17:42:43.540Z,31.33
2019-03-23T17:45:13.956Z,29.93
2019-03-23T17:47:43.683Z,28.70
2019-03-23T17:50:13.427Z,31.83
2019-03-23T17:52:43.122Z,31.73
2019-03-23T17:55:12.944Z,28.10
2019-03-23T17:57:42.643Z,28.87
2019-03-23T18:00:12.823Z,34.70
2019-03-23T18:02:42.535Z,36.67
2019-03-23T18:05:12.439Z,34.83
2019-03-23T18:07:42.217Z,33.33
2019-03-23T18:10:11.929Z,32.73
2019-03-23T18:12:41.723Z,32.87
2019-03-23T18:15:13.122Z,35.20
2019-03-23T18:17:42.811Z,33.33
2019-03-23T18:20:13.064Z,35.53
2019-03-23T18:22:42.836Z,34.73
2019-03-23T18:25:14.103Z,35.47
2019-03-23T18:27:43.849Z,34.80
2019-03-23T18:30:39.448Z,37.70
2019-03-23T18:33:09.143Z,37.83
2019-03-23T18:35:38.843Z,38.77
2019-03-23T18:38:08.558Z,39.07
2019-03-23T18:40:38.291Z,40.57
2019-03-23T18:43:08.109Z,41.17
2019-03-23T18:45:37.895Z,37.97
2019-03-23T18:48:08.145Z,37.73
2019-03-23T18:50:37.949Z,40.33
2019-03-23T18:53:07.654Z,40.97
2019-03-23T18:55:37.480Z,42.43
2019-03-23T18:58:07.304Z,38.33
2019-03-23T19:00:41.810Z,39.37
2019-03-23T19:03:11.720Z,41.00
2019-03-23T19:05:41.412Z,41.27
2019-03-23T19:08:11.991Z,40.33
2019-03-23T19:10:41.846Z,41.60
2019-03-23T19:13:11.664Z,43.97
2019-03-23T19:15:41.374Z,43.70
2019-03-23T19:18:11.199Z,43.67
2019-03-23T19:20:40.954Z,43.43
2019-03-23T19:23:10.649Z,44.20
2019-03-23T19:25:40.393Z,43.33
2019-03-23T19:28:10.082Z,44.43
2019-03-23T19:30:39.810Z,44.70
2019-03-23T19:33:09.552Z,45.53
2019-03-23T19:35:39.309Z,43.00
2019-03-23T19:38:09.062Z,43.03
2019-03-23T19:40:38.788Z,41.53
2019-03-23T19:43:08.508Z,44.00
2019-03-23T19:45:38.296Z,46.23
2019-03-23T19:48:08.007Z,44.37
2019-03-23T19:50:37.753Z,44.30
2019-03-23T19:53:07.492Z,45.83
2019-03-23T19:55:37.308Z,44.90
2019-03-23T19:58:07.059Z,43.80
2019-03-23T20:00:37.963Z,47.37
2019-03-23T20:03:07.920Z,43.73
2019-03-23T20:05:37.630Z,50.70
2019-03-23T20:08:07.368Z,49.17
2019-03-23T20:10:37.127Z,48.60
2019-03-23T20:13:06.850Z,51.03
2019-03-23T20:15:36.669Z,47.03
2019-03-23T20:18:06.605Z,52.23
2019-03-23T20:20:36.410Z,48.30
2019-03-23T20:23:06.125Z,52.03
2019-03-23T20:25:35.839Z,50.70
2019-03-23T20:28:05.750Z,53.10
2019-03-23T20:30:37.023Z,50.97
2019-03-23T20:33:06.936Z,51.60
2019-03-23T20:35:36.680Z,52.93
2019-03-23T20:38:06.360Z,54.40
2019-03-23T20:40:36.112Z,56.37
2019-03-23T20:43:08.020Z,58.47
2019-03-23T20:45:37.857Z,58.30
2019-03-23T20:48:07.599Z,56.50
2019-03-23T20:50:38.694Z,56.80
2019-03-23T20:53:08.399Z,57.47
2019-03-23T20:55:38.117Z,56.77
2019-03-23T20:58:07.881Z,57.87
2019-03-23T21:00:40.251Z,60.80
2019-03-23T21:03:09.979Z,58.50
2019-03-23T21:05:39.673Z,61.33
2019-03-23T21:08:09.425Z,58.60
2019-03-23T21:10:39.146Z,63.93
2019-03-23T21:13:08.850Z,60.03
2019-03-23T21:15:38.573Z,63.27
2019-03-23T21:18:08.355Z,59.67
2019-03-23T21:20:38.061Z,61.17
2019-03-23T21:23:07.833Z,60.17
2019-03-23T21:25:38.179Z,59.97
2019-03-23T21:28:07.919Z,63.53
2019-03-23T21:30:37.664Z,60.10
2019-03-23T21:33:07.416Z,61.37
2019-03-23T21:35:37.152Z,62.43
2019-03-23T21:38:07.115Z,62.63
2019-03-23T21:40:36.924Z,64.00
2019-03-23T21:43:06.693Z,66.90
2019-03-23T21:45:36.556Z,63.00
2019-03-23T21:48:06.332Z,68.17
2019-03-23T21:50:46.786Z,67.17
2019-03-23T21:53:07.473Z,64.37
2019-03-23T21:55:37.263Z,66.33
2019-03-23T21:58:06.976Z,66.20
2019-03-23T22:00:36.999Z,67.63
2019-03-23T22:03:06.787Z,66.67
2019-03-23T22:05:36.556Z,67.20
2019-03-23T22:08:06.328Z,65.37
2019-03-23T22:10:36.023Z,61.27
2019-03-23T22:13:05.749Z,67.97
2019-03-23T22:15:35.437Z,66.70
2019-03-23T22:18:05.232Z,65.30
2019-03-23T22:20:35.013Z,63.67
2019-03-23T22:23:04.728Z,66.17
2019-03-23T22:25:34.565Z,67.13
2019-03-23T22:28:04.287Z,66.23
2019-03-23T22:30:34.021Z,68.60
2019-03-23T22:33:03.876Z,67.30
2019-03-23T22:35:33.657Z,66.40
2019-03-23T22:38:03.476Z,64.87
2019-03-23T22:40:33.262Z,65.07
2019-03-23T22:43:02.964Z,69.03
2019-03-23T22:45:35.971Z,63.60
2019-03-23T22:48:05.687Z,66.30
2019-03-23T22:50:35.561Z,69.30
2019-03-23T22:53:05.297Z,67.13
2019-03-23T22:55:35.009Z,64.70
2019-03-23T22:58:04.734Z,64.57
2019-03-23T23:00:45.162Z,61.70
2019-03-23T23:03:15.589Z,62.30
2019-03-23T23:05:45.680Z,58.33
2019-03-23T23:08:15.496Z,59.97
2019-03-23T23:10:45.184Z,57.77
2019-03-23T23:13:14.928Z,63.57
2019-03-23T23:15:44.620Z,64.90
2019-03-23T23:18:14.326Z,66.30
2019-03-23T23:20:44.089Z,61.50
2019-03-23T23:23:13.830Z,70.57
2019-03-23T23:25:43.538Z,62.93
2019-03-23T23:28:13.285Z,68.57
2019-03-23T23:30:43.072Z,62.23
2019-03-23T23:33:12.774Z,66.30
2019-03-23T23:35:42.491Z,66.87
2019-03-23T23:38:12.203Z,70.53
2019-03-23T23:40:42.004Z,65.63
2019-03-23T23:43:11.712Z,68.37
2019-03-23T23:45:42.626Z,63.60
2019-03-23T23:48:12.528Z,62.67
2019-03-23T23:50:42.218Z,62.60
2019-03-23T23:53:11.934Z,69.53
2019-03-23T23:55:41.651Z,65.70
2019-03-23T23:58:11.379Z,63.37
